sensor_id;sensor_type;location;lat;lon;timestamp;temperature;humidity
71082;SHT31;58740;50.672;18.690;2023-12-22T00:02:15;5.30;81.81
71082;SHT31;58740;50.672;18.690;2023-12-22T00:04:49;5.29;81.76
71082;SHT31;58740;50.672;18.690;2023-12-22T00:07:22;5.30;81.90
71082;SHT31;58740;50.672;18.690;2023-12-22T00:09:55;5.30;81.84
71082;SHT31;58740;50.672;18.690;2023-12-22T00:12:28;5.29;81.40
71082;SHT31;58740;50.672;18.690;2023-12-22T00:15:02;5.26;81.09
71082;SHT31;58740;50.672;18.690;2023-12-22T00:17:36;5.25;81.05
71082;SHT31;58740;50.672;18.690;2023-12-22T00:20:10;5.22;80.85
71082;SHT31;58740;50.672;18.690;2023-12-22T00:22:43;5.21;80.48
71082;SHT31;58740;50.672;18.690;2023-12-22T00:25:17;5.18;80.26
71082;SHT31;58740;50.672;18.690;2023-12-22T00:27:50;5.16;80.42
71082;SHT31;58740;50.672;18.690;2023-12-22T00:30:23;5.14;80.46
71082;SHT31;58740;50.672;18.690;2023-12-22T00:32:56;5.12;80.31
71082;SHT31;58740;50.672;18.690;2023-12-22T00:35:29;5.11;80.29
71082;SHT31;58740;50.672;18.690;2023-12-22T00:38:04;5.10;80.53
71082;SHT31;58740;50.672;18.690;2023-12-22T00:40:39;5.08;80.34
71082;SHT31;58740;50.672;18.690;2023-12-22T00:43:13;5.09;80.35
71082;SHT31;58740;50.672;18.690;2023-12-22T00:45:46;5.07;80.23
71082;SHT31;58740;50.672;18.690;2023-12-22T00:48:19;5.06;80.17
71082;SHT31;58740;50.672;18.690;2023-12-22T00:50:52;5.05;80.17
71082;SHT31;58740;50.672;18.690;2023-12-22T00:53:25;5.05;80.24
71082;SHT31;58740;50.672;18.690;2023-12-22T00:55:59;5.05;79.96
71082;SHT31;58740;50.672;18.690;2023-12-22T00:58:32;5.04;79.52
71082;SHT31;58740;50.672;18.690;2023-12-22T01:01:05;5.03;79.40
71082;SHT31;58740;50.672;18.690;2023-12-22T01:03:39;5.04;79.37
71082;SHT31;58740;50.672;18.690;2023-12-22T01:06:12;5.04;78.97
71082;SHT31;58740;50.672;18.690;2023-12-22T01:08:45;5.05;79.42
71082;SHT31;58740;50.672;18.690;2023-12-22T01:11:19;5.04;79.23
71082;SHT31;58740;50.672;18.690;2023-12-22T01:13:52;5.05;79.34
71082;SHT31;58740;50.672;18.690;2023-12-22T01:16:26;5.05;79.38
71082;SHT31;58740;50.672;18.690;2023-12-22T01:18:59;5.05;79.31
71082;SHT31;58740;50.672;18.690;2023-12-22T01:21:32;5.04;79.52
71082;SHT31;58740;50.672;18.690;2023-12-22T01:24:06;5.04;79.61
71082;SHT31;58740;50.672;18.690;2023-12-22T01:26:39;5.03;79.48
71082;SHT31;58740;50.672;18.690;2023-12-22T01:29:12;5.02;79.08
71082;SHT31;58740;50.672;18.690;2023-12-22T01:31:46;5.02;78.73
71082;SHT31;58740;50.672;18.690;2023-12-22T01:34:19;5.01;78.57
71082;SHT31;58740;50.672;18.690;2023-12-22T01:36:52;5.00;78.61
71082;SHT31;58740;50.672;18.690;2023-12-22T01:39:25;5.00;78.59
71082;SHT31;58740;50.672;18.690;2023-12-22T01:41:58;4.99;78.32
71082;SHT31;58740;50.672;18.690;2023-12-22T01:44:32;4.99;78.29
71082;SHT31;58740;50.672;18.690;2023-12-22T01:47:05;4.99;78.19
71082;SHT31;58740;50.672;18.690;2023-12-22T01:49:39;4.98;78.15
71082;SHT31;58740;50.672;18.690;2023-12-22T01:52:12;4.97;77.87
71082;SHT31;58740;50.672;18.690;2023-12-22T01:54:46;4.98;78.01
71082;SHT31;58740;50.672;18.690;2023-12-22T01:57:21;4.98;77.65
71082;SHT31;58740;50.672;18.690;2023-12-22T01:59:54;4.96;77.24
71082;SHT31;58740;50.672;18.690;2023-12-22T02:02:29;4.96;77.18
71082;SHT31;58740;50.672;18.690;2023-12-22T02:05:03;4.93;77.04
71082;SHT31;58740;50.672;18.690;2023-12-22T02:07:41;4.93;77.18
71082;SHT31;58740;50.672;18.690;2023-12-22T02:10:16;4.91;76.38
71082;SHT31;58740;50.672;18.690;2023-12-22T02:12:49;4.91;76.25
71082;SHT31;58740;50.672;18.690;2023-12-22T02:15:22;4.90;75.79
71082;SHT31;58740;50.672;18.690;2023-12-22T02:17:59;4.89;75.94
71082;SHT31;58740;50.672;18.690;2023-12-22T02:20:38;4.86;76.13
71082;SHT31;58740;50.672;18.690;2023-12-22T02:23:13;4.82;76.28
71082;SHT31;58740;50.672;18.690;2023-12-22T02:25:46;4.79;76.83
71082;SHT31;58740;50.672;18.690;2023-12-22T02:28:26;4.75;76.14
71082;SHT31;58740;50.672;18.690;2023-12-22T02:31:00;4.73;76.28
71082;SHT31;58740;50.672;18.690;2023-12-22T02:33:46;4.70;76.19
71082;SHT31;58740;50.672;18.690;2023-12-22T02:36:25;4.68;76.22
71082;SHT31;58740;50.672;18.690;2023-12-22T02:39:00;4.67;75.93
71082;SHT31;58740;50.672;18.690;2023-12-22T02:41:36;4.65;75.59
71082;SHT31;58740;50.672;18.690;2023-12-22T02:44:10;4.64;75.27
71082;SHT31;58740;50.672;18.690;2023-12-22T02:46:44;4.62;75.26
71082;SHT31;58740;50.672;18.690;2023-12-22T02:49:18;4.61;75.30
71082;SHT31;58740;50.672;18.690;2023-12-22T02:51:51;4.60;75.03
71082;SHT31;58740;50.672;18.690;2023-12-22T02:54:25;4.58;75.15
71082;SHT31;58740;50.672;18.690;2023-12-22T02:57:00;4.57;74.74
71082;SHT31;58740;50.672;18.690;2023-12-22T02:59:34;4.56;74.45
71082;SHT31;58740;50.672;18.690;2023-12-22T03:02:08;4.54;74.05
71082;SHT31;58740;50.672;18.690;2023-12-22T03:04:41;4.54;74.13
71082;SHT31;58740;50.672;18.690;2023-12-22T03:07:15;4.52;73.79
71082;SHT31;58740;50.672;18.690;2023-12-22T03:09:48;4.50;73.35
71082;SHT31;58740;50.672;18.690;2023-12-22T03:12:22;4.47;73.26
71082;SHT31;58740;50.672;18.690;2023-12-22T03:14:55;4.44;73.42
71082;SHT31;58740;50.672;18.690;2023-12-22T03:17:28;4.43;73.12
71082;SHT31;58740;50.672;18.690;2023-12-22T03:20:01;4.43;73.40
71082;SHT31;58740;50.672;18.690;2023-12-22T03:22:35;4.41;73.30
71082;SHT31;58740;50.672;18.690;2023-12-22T03:25:09;4.39;73.12
71082;SHT31;58740;50.672;18.690;2023-12-22T03:27:42;4.36;73.07
71082;SHT31;58740;50.672;18.690;2023-12-22T03:30:16;4.35;73.57
71082;SHT31;58740;50.672;18.690;2023-12-22T03:32:49;4.33;73.28
71082;SHT31;58740;50.672;18.690;2023-12-22T03:35:23;4.32;73.67
71082;SHT31;58740;50.672;18.690;2023-12-22T03:37:56;4.32;73.65
71082;SHT31;58740;50.672;18.690;2023-12-22T03:40:30;4.30;73.52
71082;SHT31;58740;50.672;18.690;2023-12-22T03:43:03;4.31;73.46
71082;SHT31;58740;50.672;18.690;2023-12-22T03:45:37;4.32;73.82
71082;SHT31;58740;50.672;18.690;2023-12-22T03:48:10;4.32;73.72
71082;SHT31;58740;50.672;18.690;2023-12-22T03:50:43;4.32;73.84
71082;SHT31;58740;50.672;18.690;2023-12-22T03:53:17;4.32;73.81
71082;SHT31;58740;50.672;18.690;2023-12-22T03:55:50;4.31;73.84
71082;SHT31;58740;50.672;18.690;2023-12-22T03:58:23;4.32;73.83
71082;SHT31;58740;50.672;18.690;2023-12-22T04:00:58;4.29;73.88
71082;SHT31;58740;50.672;18.690;2023-12-22T04:03:32;4.26;74.33
71082;SHT31;58740;50.672;18.690;2023-12-22T04:06:05;4.22;74.56
71082;SHT31;58740;50.672;18.690;2023-12-22T04:08:39;4.17;74.74
71082;SHT31;58740;50.672;18.690;2023-12-22T04:11:12;4.07;75.06
71082;SHT31;58740;50.672;18.690;2023-12-22T04:13:45;3.99;75.28
71082;SHT31;58740;50.672;18.690;2023-12-22T04:16:18;3.92;75.30
71082;SHT31;58740;50.672;18.690;2023-12-22T04:18:51;3.83;75.45
71082;SHT31;58740;50.672;18.690;2023-12-22T04:21:25;3.75;75.93
71082;SHT31;58740;50.672;18.690;2023-12-22T04:23:58;3.68;76.32
71082;SHT31;58740;50.672;18.690;2023-12-22T04:26:31;3.61;76.53
71082;SHT31;58740;50.672;18.690;2023-12-22T04:29:04;3.55;76.40
71082;SHT31;58740;50.672;18.690;2023-12-22T04:31:37;3.50;76.46
71082;SHT31;58740;50.672;18.690;2023-12-22T04:34:12;3.46;76.74
71082;SHT31;58740;50.672;18.690;2023-12-22T04:36:46;3.44;76.55
71082;SHT31;58740;50.672;18.690;2023-12-22T04:39:19;3.41;76.41
71082;SHT31;58740;50.672;18.690;2023-12-22T04:41:55;3.39;76.56
71082;SHT31;58740;50.672;18.690;2023-12-22T04:44:28;3.34;76.50
71082;SHT31;58740;50.672;18.690;2023-12-22T04:47:01;3.30;76.42
71082;SHT31;58740;50.672;18.690;2023-12-22T04:49:35;3.27;76.36
71082;SHT31;58740;50.672;18.690;2023-12-22T04:52:08;3.23;76.21
71082;SHT31;58740;50.672;18.690;2023-12-22T04:54:42;3.17;76.19
71082;SHT31;58740;50.672;18.690;2023-12-22T04:57:16;3.15;76.41
71082;SHT31;58740;50.672;18.690;2023-12-22T04:59:50;3.14;76.63
71082;SHT31;58740;50.672;18.690;2023-12-22T05:02:24;3.11;76.37
71082;SHT31;58740;50.672;18.690;2023-12-22T05:04:58;3.11;76.51
71082;SHT31;58740;50.672;18.690;2023-12-22T05:07:32;3.10;76.41
71082;SHT31;58740;50.672;18.690;2023-12-22T05:10:06;3.08;76.35
71082;SHT31;58740;50.672;18.690;2023-12-22T05:12:40;3.06;76.21
71082;SHT31;58740;50.672;18.690;2023-12-22T05:15:13;3.05;76.36
71082;SHT31;58740;50.672;18.690;2023-12-22T05:17:46;3.05;76.32
71082;SHT31;58740;50.672;18.690;2023-12-22T05:20:20;3.04;76.59
71082;SHT31;58740;50.672;18.690;2023-12-22T05:22:53;3.06;76.73
71082;SHT31;58740;50.672;18.690;2023-12-22T05:25:27;3.07;76.54
71082;SHT31;58740;50.672;18.690;2023-12-22T05:28:01;3.07;76.56
71082;SHT31;58740;50.672;18.690;2023-12-22T05:30:34;3.07;76.41
71082;SHT31;58740;50.672;18.690;2023-12-22T05:33:08;3.07;76.59
71082;SHT31;58740;50.672;18.690;2023-12-22T05:35:41;3.08;76.77
71082;SHT31;58740;50.672;18.690;2023-12-22T05:38:14;3.08;76.41
71082;SHT31;58740;50.672;18.690;2023-12-22T05:40:47;3.07;76.19
71082;SHT31;58740;50.672;18.690;2023-12-22T05:43:21;3.06;76.28
71082;SHT31;58740;50.672;18.690;2023-12-22T05:45:54;3.06;76.38
71082;SHT31;58740;50.672;18.690;2023-12-22T05:48:30;3.07;76.29
71082;SHT31;58740;50.672;18.690;2023-12-22T05:51:05;3.07;76.58
71082;SHT31;58740;50.672;18.690;2023-12-22T05:53:42;3.08;76.45
71082;SHT31;58740;50.672;18.690;2023-12-22T05:56:18;3.07;76.31
71082;SHT31;58740;50.672;18.690;2023-12-22T05:58:52;3.05;76.40
71082;SHT31;58740;50.672;18.690;2023-12-22T06:01:25;3.05;76.77
71082;SHT31;58740;50.672;18.690;2023-12-22T06:03:59;3.04;76.82
71082;SHT31;58740;50.672;18.690;2023-12-22T06:06:32;3.03;76.99
71082;SHT31;58740;50.672;18.690;2023-12-22T06:09:08;3.02;76.96
71082;SHT31;58740;50.672;18.690;2023-12-22T06:11:41;3.00;76.87
71082;SHT31;58740;50.672;18.690;2023-12-22T06:14:16;2.98;77.01
71082;SHT31;58740;50.672;18.690;2023-12-22T06:16:49;2.99;76.99
71082;SHT31;58740;50.672;18.690;2023-12-22T06:19:25;2.98;76.81
71082;SHT31;58740;50.672;18.690;2023-12-22T06:21:59;2.99;76.95
71082;SHT31;58740;50.672;18.690;2023-12-22T06:24:34;2.99;76.86
71082;SHT31;58740;50.672;18.690;2023-12-22T06:27:07;3.00;76.60
71082;SHT31;58740;50.672;18.690;2023-12-22T06:29:40;3.00;76.40
71082;SHT31;58740;50.672;18.690;2023-12-22T06:32:13;3.00;76.04
71082;SHT31;58740;50.672;18.690;2023-12-22T06:34:47;3.00;75.67
71082;SHT31;58740;50.672;18.690;2023-12-22T06:37:20;3.00;75.76
71082;SHT31;58740;50.672;18.690;2023-12-22T06:39:53;3.02;75.40
71082;SHT31;58740;50.672;18.690;2023-12-22T06:42:27;3.03;75.30
71082;SHT31;58740;50.672;18.690;2023-12-22T06:45:00;3.05;75.38
71082;SHT31;58740;50.672;18.690;2023-12-22T06:47:34;3.06;75.36
71082;SHT31;58740;50.672;18.690;2023-12-22T06:50:08;3.09;75.47
71082;SHT31;58740;50.672;18.690;2023-12-22T06:52:42;3.10;75.13
71082;SHT31;58740;50.672;18.690;2023-12-22T06:55:15;3.12;75.18
71082;SHT31;58740;50.672;18.690;2023-12-22T06:57:49;3.13;75.04
71082;SHT31;58740;50.672;18.690;2023-12-22T07:00:23;3.15;74.90
71082;SHT31;58740;50.672;18.690;2023-12-22T07:02:57;3.16;75.01
71082;SHT31;58740;50.672;18.690;2023-12-22T07:05:31;3.18;75.11
71082;SHT31;58740;50.672;18.690;2023-12-22T07:08:06;3.21;74.97
71082;SHT31;58740;50.672;18.690;2023-12-22T07:10:40;3.22;74.85
71082;SHT31;58740;50.672;18.690;2023-12-22T07:13:15;3.22;74.37
71082;SHT31;58740;50.672;18.690;2023-12-22T07:15:48;3.22;74.67
71082;SHT31;58740;50.672;18.690;2023-12-22T07:18:23;3.23;74.45
71082;SHT31;58740;50.672;18.690;2023-12-22T07:20:59;3.24;74.65
71082;SHT31;58740;50.672;18.690;2023-12-22T07:23:33;3.23;74.75
71082;SHT31;58740;50.672;18.690;2023-12-22T07:26:06;3.26;74.68
71082;SHT31;58740;50.672;18.690;2023-12-22T07:28:39;3.28;74.57
71082;SHT31;58740;50.672;18.690;2023-12-22T07:31:14;3.29;74.34
71082;SHT31;58740;50.672;18.690;2023-12-22T07:33:47;3.31;74.30
71082;SHT31;58740;50.672;18.690;2023-12-22T07:36:21;3.33;74.05
71082;SHT31;58740;50.672;18.690;2023-12-22T07:38:54;3.34;73.86
71082;SHT31;58740;50.672;18.690;2023-12-22T07:41:29;3.36;73.98
71082;SHT31;58740;50.672;18.690;2023-12-22T07:44:04;3.39;73.80
71082;SHT31;58740;50.672;18.690;2023-12-22T07:46:37;3.43;74.00
71082;SHT31;58740;50.672;18.690;2023-12-22T07:49:11;3.47;74.09
71082;SHT31;58740;50.672;18.690;2023-12-22T07:51:45;3.50;73.88
71082;SHT31;58740;50.672;18.690;2023-12-22T07:54:20;3.53;73.73
71082;SHT31;58740;50.672;18.690;2023-12-22T07:56:54;3.54;73.64
71082;SHT31;58740;50.672;18.690;2023-12-22T07:59:27;3.56;73.57
71082;SHT31;58740;50.672;18.690;2023-12-22T08:02:02;3.58;73.95
71082;SHT31;58740;50.672;18.690;2023-12-22T08:04:35;3.61;73.82
71082;SHT31;58740;50.672;18.690;2023-12-22T08:07:08;3.62;73.98
71082;SHT31;58740;50.672;18.690;2023-12-22T08:09:42;3.63;74.02
71082;SHT31;58740;50.672;18.690;2023-12-22T08:12:15;3.62;74.21
71082;SHT31;58740;50.672;18.690;2023-12-22T08:14:48;3.61;74.36
71082;SHT31;58740;50.672;18.690;2023-12-22T08:17:22;3.61;74.66
71082;SHT31;58740;50.672;18.690;2023-12-22T08:19:55;3.61;74.94
71082;SHT31;58740;50.672;18.690;2023-12-22T08:22:39;3.60;74.78
71082;SHT31;58740;50.672;18.690;2023-12-22T08:25:15;3.61;74.92
71082;SHT31;58740;50.672;18.690;2023-12-22T08:27:50;3.62;75.14
71082;SHT31;58740;50.672;18.690;2023-12-22T08:30:23;3.64;75.24
71082;SHT31;58740;50.672;18.690;2023-12-22T08:32:56;3.64;75.19
71082;SHT31;58740;50.672;18.690;2023-12-22T08:35:29;3.64;75.16
71082;SHT31;58740;50.672;18.690;2023-12-22T08:38:04;3.64;75.30
71082;SHT31;58740;50.672;18.690;2023-12-22T08:40:37;3.63;75.40
71082;SHT31;58740;50.672;18.690;2023-12-22T08:43:11;3.62;75.45
71082;SHT31;58740;50.672;18.690;2023-12-22T08:45:44;3.62;75.32
71082;SHT31;58740;50.672;18.690;2023-12-22T08:48:17;3.60;75.10
71082;SHT31;58740;50.672;18.690;2023-12-22T08:50:50;3.59;75.17
71082;SHT31;58740;50.672;18.690;2023-12-22T08:53:24;3.59;75.12
71082;SHT31;58740;50.672;18.690;2023-12-22T08:55:59;3.58;75.20
71082;SHT31;58740;50.672;18.690;2023-12-22T08:58:32;3.58;75.32
71082;SHT31;58740;50.672;18.690;2023-12-22T09:01:06;3.60;75.31
71082;SHT31;58740;50.672;18.690;2023-12-22T09:03:43;3.61;75.36
71082;SHT31;58740;50.672;18.690;2023-12-22T09:06:18;3.62;75.38
71082;SHT31;58740;50.672;18.690;2023-12-22T09:08:54;3.64;75.48
71082;SHT31;58740;50.672;18.690;2023-12-22T09:11:27;3.64;75.71
71082;SHT31;58740;50.672;18.690;2023-12-22T09:14:00;3.64;75.75
71082;SHT31;58740;50.672;18.690;2023-12-22T09:16:34;3.65;76.05
71082;SHT31;58740;50.672;18.690;2023-12-22T09:19:08;3.63;76.17
71082;SHT31;58740;50.672;18.690;2023-12-22T09:21:42;3.59;76.53
71082;SHT31;58740;50.672;18.690;2023-12-22T09:24:15;3.56;76.91
71082;SHT31;58740;50.672;18.690;2023-12-22T09:26:48;3.53;76.94
71082;SHT31;58740;50.672;18.690;2023-12-22T09:29:21;3.48;77.01
71082;SHT31;58740;50.672;18.690;2023-12-22T09:31:55;3.48;77.12
71082;SHT31;58740;50.672;18.690;2023-12-22T09:34:29;3.48;77.26
71082;SHT31;58740;50.672;18.690;2023-12-22T09:37:02;3.47;77.39
71082;SHT31;58740;50.672;18.690;2023-12-22T09:39:35;3.49;77.50
71082;SHT31;58740;50.672;18.690;2023-12-22T09:42:08;3.51;77.47
71082;SHT31;58740;50.672;18.690;2023-12-22T09:44:44;3.52;77.36
71082;SHT31;58740;50.672;18.690;2023-12-22T09:47:21;3.53;77.39
71082;SHT31;58740;50.672;18.690;2023-12-22T09:49:58;3.54;77.51
71082;SHT31;58740;50.672;18.690;2023-12-22T09:52:34;3.54;77.55
71082;SHT31;58740;50.672;18.690;2023-12-22T09:55:10;3.56;77.31
71082;SHT31;58740;50.672;18.690;2023-12-22T09:57:44;3.55;77.08
71082;SHT31;58740;50.672;18.690;2023-12-22T10:00:19;3.54;77.09
71082;SHT31;58740;50.672;18.690;2023-12-22T10:02:57;3.54;77.11
71082;SHT31;58740;50.672;18.690;2023-12-22T10:05:31;3.57;77.20
71082;SHT31;58740;50.672;18.690;2023-12-22T10:08:05;3.59;77.09
71082;SHT31;58740;50.672;18.690;2023-12-22T10:10:40;3.59;77.04
71082;SHT31;58740;50.672;18.690;2023-12-22T10:13:16;3.59;76.92
71082;SHT31;58740;50.672;18.690;2023-12-22T10:15:49;3.59;76.90
71082;SHT31;58740;50.672;18.690;2023-12-22T10:18:24;3.56;76.97
71082;SHT31;58740;50.672;18.690;2023-12-22T10:20:58;3.52;77.13
71082;SHT31;58740;50.672;18.690;2023-12-22T10:23:32;3.47;77.26
71082;SHT31;58740;50.672;18.690;2023-12-22T10:26:05;3.44;77.43
71082;SHT31;58740;50.672;18.690;2023-12-22T10:28:41;3.37;77.59
71082;SHT31;58740;50.672;18.690;2023-12-22T10:31:16;3.31;77.35
71082;SHT31;58740;50.672;18.690;2023-12-22T10:33:49;3.27;77.25
71082;SHT31;58740;50.672;18.690;2023-12-22T10:36:23;3.25;77.40
71082;SHT31;58740;50.672;18.690;2023-12-22T10:38:56;3.27;77.42
71082;SHT31;58740;50.672;18.690;2023-12-22T10:41:30;3.31;77.27
71082;SHT31;58740;50.672;18.690;2023-12-22T10:44:04;3.37;77.45
71082;SHT31;58740;50.672;18.690;2023-12-22T10:46:38;3.43;77.50
71082;SHT31;58740;50.672;18.690;2023-12-22T10:49:12;3.46;77.30
71082;SHT31;58740;50.672;18.690;2023-12-22T10:51:45;3.48;77.36
71082;SHT31;58740;50.672;18.690;2023-12-22T10:54:19;3.48;77.27
71082;SHT31;58740;50.672;18.690;2023-12-22T10:56:53;3.49;77.27
71082;SHT31;58740;50.672;18.690;2023-12-22T10:59:29;3.50;77.29
71082;SHT31;58740;50.672;18.690;2023-12-22T11:02:16;3.50;77.18
71082;SHT31;58740;50.672;18.690;2023-12-22T11:04:52;3.51;77.15
71082;SHT31;58740;50.672;18.690;2023-12-22T11:07:34;3.50;77.13
71082;SHT31;58740;50.672;18.690;2023-12-22T11:10:08;3.47;77.19
71082;SHT31;58740;50.672;18.690;2023-12-22T11:12:44;3.46;77.24
71082;SHT31;58740;50.672;18.690;2023-12-22T11:15:20;3.42;77.23
71082;SHT31;58740;50.672;18.690;2023-12-22T11:17:55;3.42;77.45
71082;SHT31;58740;50.672;18.690;2023-12-22T11:20:31;3.41;77.33
71082;SHT31;58740;50.672;18.690;2023-12-22T11:23:07;3.39;77.21
71082;SHT31;58740;50.672;18.690;2023-12-22T11:25:42;3.38;77.32
71082;SHT31;58740;50.672;18.690;2023-12-22T11:28:19;3.38;77.48
71082;SHT31;58740;50.672;18.690;2023-12-22T11:30:54;3.38;77.18
71082;SHT31;58740;50.672;18.690;2023-12-22T11:33:29;3.37;77.15
71082;SHT31;58740;50.672;18.690;2023-12-22T11:36:06;3.39;77.40
71082;SHT31;58740;50.672;18.690;2023-12-22T11:38:41;3.40;77.35
71082;SHT31;58740;50.672;18.690;2023-12-22T11:41:18;3.44;77.21
71082;SHT31;58740;50.672;18.690;2023-12-22T11:43:56;3.47;77.06
71082;SHT31;58740;50.672;18.690;2023-12-22T11:46:32;3.50;77.23
71082;SHT31;58740;50.672;18.690;2023-12-22T11:49:06;3.53;77.04
71082;SHT31;58740;50.672;18.690;2023-12-22T11:51:43;3.54;76.78
71082;SHT31;58740;50.672;18.690;2023-12-22T11:57:32;3.53;76.30
71082;SHT31;58740;50.672;18.690;2023-12-22T12:00:09;3.55;76.38
71082;SHT31;58740;50.672;18.690;2023-12-22T12:03:11;3.57;75.85
71082;SHT31;58740;50.672;18.690;2023-12-22T12:05:46;3.57;75.52
71082;SHT31;58740;50.672;18.690;2023-12-22T12:08:39;3.54;75.57
71082;SHT31;58740;50.672;18.690;2023-12-22T12:11:13;3.55;75.59
71082;SHT31;58740;50.672;18.690;2023-12-22T12:13:48;3.56;75.33
71082;SHT31;58740;50.672;18.690;2023-12-22T12:16:22;3.56;74.84
71082;SHT31;58740;50.672;18.690;2023-12-22T12:18:58;3.54;74.57
71082;SHT31;58740;50.672;18.690;2023-12-22T12:21:32;3.51;74.72
71082;SHT31;58740;50.672;18.690;2023-12-22T12:24:05;3.47;74.81
71082;SHT31;58740;50.672;18.690;2023-12-22T12:26:40;3.43;74.79
71082;SHT31;58740;50.672;18.690;2023-12-22T12:29:14;3.42;74.64
71082;SHT31;58740;50.672;18.690;2023-12-22T12:31:49;3.41;74.45
71082;SHT31;58740;50.672;18.690;2023-12-22T12:34:32;3.41;74.35
71082;SHT31;58740;50.672;18.690;2023-12-22T12:37:06;3.43;74.57
71082;SHT31;58740;50.672;18.690;2023-12-22T12:39:40;3.44;74.98
71082;SHT31;58740;50.672;18.690;2023-12-22T12:42:16;3.42;75.56
71082;SHT31;58740;50.672;18.690;2023-12-22T12:44:52;3.42;76.16
71082;SHT31;58740;50.672;18.690;2023-12-22T12:47:26;3.42;76.47
71082;SHT31;58740;50.672;18.690;2023-12-22T12:50:00;3.41;76.72
71082;SHT31;58740;50.672;18.690;2023-12-22T12:52:34;3.42;76.97
71082;SHT31;58740;50.672;18.690;2023-12-22T12:55:07;3.42;77.20
71082;SHT31;58740;50.672;18.690;2023-12-22T12:57:42;3.43;77.20
71082;SHT31;58740;50.672;18.690;2023-12-22T13:00:18;3.46;77.20
71082;SHT31;58740;50.672;18.690;2023-12-22T13:02:58;3.49;76.96
71082;SHT31;58740;50.672;18.690;2023-12-22T13:05:36;3.52;76.74
71082;SHT31;58740;50.672;18.690;2023-12-22T13:08:10;3.53;76.47
71082;SHT31;58740;50.672;18.690;2023-12-22T13:10:44;3.53;75.99
71082;SHT31;58740;50.672;18.690;2023-12-22T13:13:18;3.52;75.93
71082;SHT31;58740;50.672;18.690;2023-12-22T13:15:51;3.54;75.68
71082;SHT31;58740;50.672;18.690;2023-12-22T13:18:24;3.55;75.63
71082;SHT31;58740;50.672;18.690;2023-12-22T13:20:58;3.57;75.44
71082;SHT31;58740;50.672;18.690;2023-12-22T13:23:32;3.59;75.18
71082;SHT31;58740;50.672;18.690;2023-12-22T13:26:06;3.59;74.37
71082;SHT31;58740;50.672;18.690;2023-12-22T13:28:49;3.60;73.94
71082;SHT31;58740;50.672;18.690;2023-12-22T13:31:29;3.60;73.81
71082;SHT31;58740;50.672;18.690;2023-12-22T13:34:03;3.61;74.02
71082;SHT31;58740;50.672;18.690;2023-12-22T13:36:41;3.63;73.86
71082;SHT31;58740;50.672;18.690;2023-12-22T13:39:15;3.65;72.91
71082;SHT31;58740;50.672;18.690;2023-12-22T13:41:49;3.66;72.67
71082;SHT31;58740;50.672;18.690;2023-12-22T13:44:22;3.68;72.28
71082;SHT31;58740;50.672;18.690;2023-12-22T13:46:57;3.69;71.78
71082;SHT31;58740;50.672;18.690;2023-12-22T13:49:36;3.72;71.09
71082;SHT31;58740;50.672;18.690;2023-12-22T13:55:02;3.73;70.70
71082;SHT31;58740;50.672;18.690;2023-12-22T13:57:42;3.72;70.48
71082;SHT31;58740;50.672;18.690;2023-12-22T14:00:26;3.73;70.15
71082;SHT31;58740;50.672;18.690;2023-12-22T14:03:02;3.72;69.98
71082;SHT31;58740;50.672;18.690;2023-12-22T14:05:36;3.71;70.21
71082;SHT31;58740;50.672;18.690;2023-12-22T14:08:10;3.70;69.87
71082;SHT31;58740;50.672;18.690;2023-12-22T14:10:48;3.69;69.45
71082;SHT31;58740;50.672;18.690;2023-12-22T14:13:21;3.68;69.49
71082;SHT31;58740;50.672;18.690;2023-12-22T14:15:56;3.66;69.21
71082;SHT31;58740;50.672;18.690;2023-12-22T14:18:29;3.65;69.30
71082;SHT31;58740;50.672;18.690;2023-12-22T14:21:03;3.65;69.71
71082;SHT31;58740;50.672;18.690;2023-12-22T14:23:37;3.64;69.82
71082;SHT31;58740;50.672;18.690;2023-12-22T14:26:10;3.62;69.08
71082;SHT31;58740;50.672;18.690;2023-12-22T14:28:45;3.60;69.14
71082;SHT31;58740;50.672;18.690;2023-12-22T14:31:20;3.59;69.41
71082;SHT31;58740;50.672;18.690;2023-12-22T14:33:54;3.59;68.95
71082;SHT31;58740;50.672;18.690;2023-12-22T14:36:27;3.56;68.98
71082;SHT31;58740;50.672;18.690;2023-12-22T14:39:00;3.54;68.69
71082;SHT31;58740;50.672;18.690;2023-12-22T14:41:34;3.52;68.84
71082;SHT31;58740;50.672;18.690;2023-12-22T14:44:08;3.49;68.81
71082;SHT31;58740;50.672;18.690;2023-12-22T14:46:41;3.47;68.84
71082;SHT31;58740;50.672;18.690;2023-12-22T14:49:15;3.45;68.67
71082;SHT31;58740;50.672;18.690;2023-12-22T14:51:48;3.42;68.94
71082;SHT31;58740;50.672;18.690;2023-12-22T14:54:23;3.41;68.71
71082;SHT31;58740;50.672;18.690;2023-12-22T14:56:57;3.39;68.60
71082;SHT31;58740;50.672;18.690;2023-12-22T14:59:30;3.37;68.89
71082;SHT31;58740;50.672;18.690;2023-12-22T15:02:04;3.37;69.11
71082;SHT31;58740;50.672;18.690;2023-12-22T15:04:37;3.36;69.00
71082;SHT31;58740;50.672;18.690;2023-12-22T15:07:13;3.34;68.99
71082;SHT31;58740;50.672;18.690;2023-12-22T15:09:48;3.33;68.84
71082;SHT31;58740;50.672;18.690;2023-12-22T15:12:21;3.32;68.86
71082;SHT31;58740;50.672;18.690;2023-12-22T15:14:57;3.31;68.99
71082;SHT31;58740;50.672;18.690;2023-12-22T15:17:32;3.30;68.88
71082;SHT31;58740;50.672;18.690;2023-12-22T15:20:06;3.29;68.69
71082;SHT31;58740;50.672;18.690;2023-12-22T15:22:41;3.29;68.57
71082;SHT31;58740;50.672;18.690;2023-12-22T15:25:14;3.27;68.50
71082;SHT31;58740;50.672;18.690;2023-12-22T15:27:50;3.26;69.03
71082;SHT31;58740;50.672;18.690;2023-12-22T15:30:24;3.25;68.84
71082;SHT31;58740;50.672;18.690;2023-12-22T15:32:59;3.24;68.87
71082;SHT31;58740;50.672;18.690;2023-12-22T15:35:32;3.22;68.74
71082;SHT31;58740;50.672;18.690;2023-12-22T15:38:05;3.21;68.70
71082;SHT31;58740;50.672;18.690;2023-12-22T15:40:40;3.21;68.58
71082;SHT31;58740;50.672;18.690;2023-12-22T15:43:13;3.21;68.68
71082;SHT31;58740;50.672;18.690;2023-12-22T15:45:46;3.21;68.69
71082;SHT31;58740;50.672;18.690;2023-12-22T15:48:19;3.22;68.64
71082;SHT31;58740;50.672;18.690;2023-12-22T15:50:53;3.21;68.65
71082;SHT31;58740;50.672;18.690;2023-12-22T15:53:26;3.20;68.84
71082;SHT31;58740;50.672;18.690;2023-12-22T15:55:59;3.21;68.83
71082;SHT31;58740;50.672;18.690;2023-12-22T15:58:38;3.19;68.53
71082;SHT31;58740;50.672;18.690;2023-12-22T16:01:12;3.18;68.40
71082;SHT31;58740;50.672;18.690;2023-12-22T16:03:45;3.18;68.56
71082;SHT31;58740;50.672;18.690;2023-12-22T16:06:21;3.17;68.16
71082;SHT31;58740;50.672;18.690;2023-12-22T16:08:54;3.15;68.37
71082;SHT31;58740;50.672;18.690;2023-12-22T16:11:28;3.15;68.60
71082;SHT31;58740;50.672;18.690;2023-12-22T16:14:01;3.15;68.30
71082;SHT31;58740;50.672;18.690;2023-12-22T16:16:35;3.14;68.07
71082;SHT31;58740;50.672;18.690;2023-12-22T16:19:08;3.15;68.24
71082;SHT31;58740;50.672;18.690;2023-12-22T16:21:41;3.14;68.20